createdAt,value
2019-03-31T00:00:09.366Z,59.49
2019-03-31T00:03:14.123Z,59.88
2019-03-31T00:06:18.557Z,60.07
2019-03-31T00:09:23.003Z,60.58
2019-03-31T00:12:27.440Z,60.37
2019-03-31T00:15:31.948Z,60.73
2019-03-31T00:18:36.391Z,60.50
2019-03-31T00:21:40.837Z,60.45
2019-03-31T00:24:45.270Z,60.73
2019-03-31T00:27:49.720Z,60.81
2019-03-31T00:30:55.259Z,61.05
2019-03-31T00:33:59.701Z,61.40
2019-03-31T00:37:07.495Z,61.42
2019-03-31T00:40:12.529Z,61.79
2019-03-31T00:43:16.973Z,61.95
2019-03-31T00:46:21.409Z,62.12
2019-03-31T00:49:25.851Z,62.15
2019-03-31T00:52:30.295Z,61.87
2019-03-31T00:55:34.750Z,62.36
2019-03-31T00:58:39.479Z,61.96
2019-03-31T01:01:48.861Z,61.57
2019-03-31T01:04:53.539Z,61.38
2019-03-31T01:07:58.059Z,61.41
2019-03-31T01:11:08.085Z,61.86
2019-03-31T01:14:12.593Z,61.87
2019-03-31T01:17:19.003Z,62.67
2019-03-31T01:20:23.855Z,62.45
2019-03-31T01:23:28.370Z,62.11
2019-03-31T01:26:33.112Z,61.72
2019-03-31T01:29:37.725Z,61.48
2019-03-31T01:32:42.580Z,61.76
2019-03-31T01:35:47.311Z,61.85
2019-03-31T01:38:51.744Z,62.00
2019-03-31T01:41:56.179Z,61.41
2019-03-31T01:45:00.883Z,61.64
2019-03-31T01:48:05.965Z,62.03
2019-03-31T01:51:11.004Z,62.71
2019-03-31T01:54:15.457Z,62.90
2019-03-31T01:57:19.879Z,62.95
2019-03-31T02:00:28.907Z,62.86
2019-03-31T02:03:33.360Z,62.52
2019-03-31T02:06:37.784Z,63.14
2019-03-31T02:09:42.224Z,63.53
2019-03-31T02:12:46.656Z,63.61
2019-03-31T02:15:51.097Z,63.13
2019-03-31T02:18:55.535Z,62.55
2019-03-31T02:21:59.970Z,63.54
2019-03-31T02:25:05.639Z,63.86
2019-03-31T02:28:10.395Z,64.06
2019-03-31T02:31:14.902Z,63.66
2019-03-31T02:34:19.344Z,63.52
2019-03-31T02:37:23.771Z,63.92
2019-03-31T02:40:28.210Z,63.84
2019-03-31T02:43:32.919Z,64.14
2019-03-31T02:46:37.657Z,64.04
2019-03-31T02:49:42.381Z,64.24
2019-03-31T02:52:47.109Z,64.04
2019-03-31T02:55:51.921Z,64.22
2019-03-31T02:58:58.428Z,64.89
2019-03-31T03:02:03.310Z,64.70
2019-03-31T03:05:18.750Z,65.00
2019-03-31T03:08:15.659Z,64.54
2019-03-31T03:11:21.641Z,64.94
2019-03-31T03:14:28.317Z,65.37
2019-03-31T03:17:33.057Z,65.00
2019-03-31T03:20:37.479Z,64.56
2019-03-31T03:23:42.200Z,64.83
2019-03-31T03:26:46.935Z,64.61
2019-03-31T03:29:51.668Z,64.73
2019-03-31T03:33:15.621Z,64.63
2019-03-31T03:36:02.663Z,64.54
2019-03-31T03:39:08.878Z,65.17
2019-03-31T03:42:13.318Z,65.28
2019-03-31T03:45:18.089Z,65.22
2019-03-31T03:48:22.513Z,66.09
2019-03-31T03:51:27.236Z,66.00
2019-03-31T03:54:31.676Z,65.60
2019-03-31T03:57:36.401Z,65.64
2019-03-31T04:00:40.824Z,66.02
2019-03-31T04:03:45.250Z,65.67
2019-03-31T04:06:49.691Z,66.05
2019-03-31T04:09:54.128Z,66.50
2019-03-31T04:12:58.563Z,66.03
2019-03-31T04:16:02.992Z,65.91
2019-03-31T04:19:07.502Z,66.24
2019-03-31T04:22:12.291Z,66.39
2019-03-31T04:25:16.741Z,66.77
2019-03-31T04:28:21.551Z,67.05
2019-03-31T04:31:25.994Z,67.08
2019-03-31T04:34:30.575Z,66.69
2019-03-31T04:37:35.041Z,67.03
2019-03-31T04:40:39.482Z,67.33
2019-03-31T04:43:43.917Z,67.08
2019-03-31T04:46:48.355Z,66.66
2019-03-31T04:49:52.794Z,66.12
2019-03-31T04:52:57.245Z,66.07
2019-03-31T04:56:01.970Z,66.78
2019-03-31T04:59:06.408Z,67.60
2019-03-31T05:02:10.850Z,66.89
2019-03-31T05:05:15.285Z,66.56
2019-03-31T05:08:19.723Z,67.59
2019-03-31T05:11:24.509Z,67.05
2019-03-31T05:14:28.945Z,66.48
2019-03-31T05:17:35.762Z,67.20
2019-03-31T05:20:39.809Z,67.13
2019-03-31T05:23:44.255Z,66.88
2019-03-31T05:26:48.695Z,67.06
2019-03-31T05:29:53.127Z,67.30
2019-03-31T05:32:57.574Z,67.75
2019-03-31T05:36:02.347Z,67.38
2019-03-31T05:39:07.815Z,67.80
2019-03-31T05:42:12.261Z,68.15
2019-03-31T05:45:16.951Z,68.87
2019-03-31T05:48:21.678Z,68.13
2019-03-31T05:51:26.119Z,68.88
2019-03-31T05:54:30.836Z,68.70
2019-03-31T05:57:35.568Z,68.37
2019-03-31T06:00:41.876Z,68.30
2019-03-31T06:03:46.561Z,67.79
2019-03-31T06:06:51.071Z,67.68
2019-03-31T06:09:55.532Z,67.66
2019-03-31T06:12:59.967Z,67.38
2019-03-31T06:16:04.404Z,67.25
2019-03-31T06:19:08.859Z,66.89
2019-03-31T06:22:13.294Z,65.08
2019-03-31T06:25:17.746Z,64.11
2019-03-31T06:28:22.462Z,61.09
2019-03-31T06:31:26.903Z,58.24
2019-03-31T06:34:31.616Z,55.12
2019-03-31T06:37:36.450Z,51.23
2019-03-31T06:40:42.627Z,47.71
2019-03-31T06:43:47.078Z,44.90
2019-03-31T06:46:51.533Z,43.25
2019-03-31T06:49:55.976Z,41.92
2019-03-31T06:53:00.427Z,42.19
2019-03-31T06:56:04.938Z,42.54
2019-03-31T06:59:09.715Z,40.70
2019-03-31T07:02:14.152Z,40.57
2019-03-31T07:05:18.589Z,39.09
2019-03-31T07:08:23.357Z,37.31
2019-03-31T07:11:27.799Z,36.25
2019-03-31T07:14:32.252Z,34.72
2019-03-31T07:17:36.707Z,33.83
2019-03-31T07:20:41.401Z,33.33
2019-03-31T07:23:46.193Z,33.03
2019-03-31T07:26:50.630Z,35.15
2019-03-31T07:29:55.086Z,37.47
2019-03-31T07:32:59.874Z,38.75
2019-03-31T07:36:04.321Z,41.34
2019-03-31T07:39:09.329Z,43.11
2019-03-31T07:42:14.173Z,42.89
2019-03-31T07:45:19.111Z,45.29
2019-03-31T07:48:23.559Z,48.06
2019-03-31T07:51:28.251Z,49.10
2019-03-31T07:54:32.706Z,49.38
2019-03-31T07:57:37.238Z,49.89
2019-03-31T08:00:41.753Z,49.20
2019-03-31T08:03:46.203Z,51.01
2019-03-31T08:06:50.645Z,51.17
2019-03-31T08:09:55.092Z,50.21
2019-03-31T08:13:00.035Z,50.58
2019-03-31T08:16:04.484Z,51.14
2019-03-31T08:19:08.936Z,50.98
2019-03-31T08:22:13.382Z,49.58
2019-03-31T08:25:18.239Z,48.39
2019-03-31T08:28:23.256Z,48.37
2019-03-31T08:31:28.019Z,47.45
2019-03-31T08:34:32.732Z,45.88
2019-03-31T08:37:37.216Z,45.97
2019-03-31T08:40:42.013Z,46.08
2019-03-31T08:43:46.729Z,46.47
2019-03-31T08:46:51.168Z,44.14
2019-03-31T08:49:55.625Z,44.03
2019-03-31T08:53:00.058Z,43.40
2019-03-31T08:56:04.513Z,41.95
2019-03-31T08:59:08.995Z,39.73
2019-03-31T09:02:23.841Z,40.20
2019-03-31T09:05:28.562Z,40.48
2019-03-31T09:08:33.005Z,39.14
2019-03-31T09:11:37.446Z,36.92
2019-03-31T09:14:42.636Z,36.04
2019-03-31T09:17:47.365Z,36.59
2019-03-31T09:20:51.816Z,35.80
2019-03-31T09:23:56.515Z,34.33
2019-03-31T09:27:01.209Z,35.36
2019-03-31T09:30:11.927Z,35.42
2019-03-31T09:33:16.565Z,33.34
2019-03-31T09:36:21.475Z,35.36
2019-03-31T09:39:26.169Z,35.51
2019-03-31T09:42:30.962Z,33.65
2019-03-31T09:45:35.679Z,33.24
2019-03-31T09:48:41.246Z,34.40
2019-03-31T09:51:46.390Z,32.98
2019-03-31T09:54:51.253Z,32.22
2019-03-31T09:57:55.993Z,31.39
2019-03-31T10:01:00.861Z,29.80
2019-03-31T10:04:05.810Z,31.72
2019-03-31T10:07:10.332Z,32.83
2019-03-31T10:10:31.525Z,31.70
2019-03-31T10:13:36.278Z,32.92
2019-03-31T10:16:41.012Z,32.11
2019-03-31T10:19:45.733Z,34.10
2019-03-31T10:22:50.506Z,32.62
2019-03-31T10:25:55.305Z,32.39
2019-03-31T10:28:59.743Z,33.15
2019-03-31T10:32:23.765Z,32.73
2019-03-31T10:35:28.227Z,32.05
2019-03-31T10:38:32.666Z,30.46
2019-03-31T10:41:37.120Z,30.30
2019-03-31T10:44:41.574Z,29.73
2019-03-31T10:47:46.334Z,28.44
2019-03-31T10:50:50.789Z,28.34
2019-03-31T10:53:55.496Z,27.78
2019-03-31T10:57:00.267Z,28.40
2019-03-31T11:00:08.015Z,28.45
2019-03-31T11:03:12.752Z,27.90
2019-03-31T11:06:17.204Z,26.48
2019-03-31T11:09:21.642Z,27.18
2019-03-31T11:12:26.092Z,25.79
2019-03-31T11:15:30.855Z,26.37
2019-03-31T11:18:35.592Z,25.97
2019-03-31T11:21:41.757Z,26.48
2019-03-31T11:24:46.201Z,25.29
2019-03-31T11:27:50.664Z,24.48
2019-03-31T11:30:55.114Z,26.43
2019-03-31T11:33:59.863Z,25.34
2019-03-31T11:37:13.424Z,27.53
2019-03-31T11:40:11.205Z,23.57
2019-03-31T11:43:15.674Z,24.92
2019-03-31T11:46:20.416Z,25.83
2019-03-31T11:49:24.856Z,26.06
2019-03-31T11:52:29.572Z,26.75
2019-03-31T11:55:34.030Z,25.20
2019-03-31T11:58:38.732Z,27.49
2019-03-31T12:01:43.178Z,25.89
2019-03-31T12:04:47.641Z,25.36
2019-03-31T12:07:52.410Z,26.81
2019-03-31T12:10:57.141Z,25.20
2019-03-31T12:14:01.580Z,26.06
2019-03-31T12:17:06.032Z,24.34
2019-03-31T12:20:11.239Z,24.95
2019-03-31T12:23:15.958Z,25.63
2019-03-31T12:26:20.684Z,22.28
2019-03-31T12:29:25.412Z,23.68
2019-03-31T12:32:29.858Z,20.88
2019-03-31T12:35:34.394Z,23.03
2019-03-31T12:38:38.820Z,24.31
2019-03-31T12:41:43.521Z,23.99
2019-03-31T12:44:47.957Z,23.46
2019-03-31T12:47:52.675Z,25.22
2019-03-31T12:50:57.112Z,25.55
2019-03-31T12:54:01.831Z,26.17
2019-03-31T12:57:06.272Z,27.19
2019-03-31T13:00:11.188Z,28.11
2019-03-31T13:03:16.562Z,25.37
2019-03-31T13:06:21.152Z,25.68
2019-03-31T13:09:25.896Z,24.52
2019-03-31T13:12:30.342Z,24.67
2019-03-31T13:15:35.046Z,24.10
2019-03-31T13:18:39.483Z,25.32
2019-03-31T13:21:43.945Z,25.53
2019-03-31T13:24:48.389Z,22.43
2019-03-31T13:27:53.146Z,22.67
2019-03-31T13:30:57.884Z,23.31
2019-03-31T13:34:02.611Z,23.94
2019-03-31T13:37:07.342Z,23.87
2019-03-31T13:40:12.788Z,24.72
2019-03-31T13:43:17.225Z,25.44
2019-03-31T13:46:21.662Z,25.36
2019-03-31T13:49:26.112Z,25.45
2019-03-31T13:52:30.564Z,24.70
2019-03-31T13:55:35.010Z,23.33
2019-03-31T13:58:41.235Z,24.12
2019-03-31T14:01:45.750Z,24.24
2019-03-31T14:04:51.787Z,22.16
2019-03-31T14:07:56.595Z,22.86
2019-03-31T14:11:01.034Z,21.99
2019-03-31T14:14:05.548Z,21.97
2019-03-31T14:17:10.269Z,21.36
2019-03-31T14:20:14.842Z,21.31
2019-03-31T14:23:19.300Z,20.83
2019-03-31T14:26:24.068Z,21.44
2019-03-31T14:29:28.510Z,20.54
2019-03-31T14:32:32.946Z,20.39
2019-03-31T14:35:38.169Z,20.40
2019-03-31T14:38:42.808Z,21.08
2019-03-31T14:41:47.238Z,18.90
2019-03-31T14:44:51.679Z,19.98
2019-03-31T14:47:56.459Z,21.42
2019-03-31T14:51:01.211Z,20.80
2019-03-31T14:54:05.652Z,20.12
2019-03-31T14:57:10.443Z,20.03
2019-03-31T15:00:15.544Z,19.39
2019-03-31T15:03:20.623Z,21.50
2019-03-31T15:06:25.063Z,21.65
2019-03-31T15:09:29.503Z,20.14
2019-03-31T15:12:33.941Z,20.94
2019-03-31T15:15:38.380Z,20.48
2019-03-31T15:18:42.825Z,21.67
2019-03-31T15:21:47.324Z,20.95
2019-03-31T15:24:51.766Z,21.87
2019-03-31T15:27:56.208Z,21.71
2019-03-31T15:31:00.655Z,21.30
2019-03-31T15:34:05.487Z,22.96
2019-03-31T15:37:09.916Z,21.67
2019-03-31T15:40:14.627Z,22.22
2019-03-31T15:43:19.295Z,24.73
2019-03-31T15:46:24.717Z,22.93
2019-03-31T15:49:29.362Z,22.56
2019-03-31T15:52:33.878Z,23.41
2019-03-31T15:55:38.382Z,23.62
2019-03-31T15:58:42.833Z,22.91
2019-03-31T16:01:47.277Z,23.22
2019-03-31T16:04:52.065Z,23.20
2019-03-31T16:07:56.497Z,23.24
2019-03-31T16:11:01.295Z,24.36
2019-03-31T16:14:07.105Z,23.90
2019-03-31T16:17:11.550Z,23.30
2019-03-31T16:20:16.861Z,24.17
2019-03-31T16:23:21.310Z,23.63
2019-03-31T16:26:26.343Z,24.25
2019-03-31T16:29:31.042Z,24.19
2019-03-31T16:32:35.487Z,23.94
2019-03-31T16:35:39.928Z,24.09
2019-03-31T16:38:44.623Z,25.08
2019-03-31T16:41:49.360Z,26.04
2019-03-31T16:44:58.320Z,26.88
2019-03-31T16:48:00.265Z,25.61
2019-03-31T16:51:04.976Z,27.90
2019-03-31T16:54:09.707Z,27.00
2019-03-31T16:57:14.165Z,26.38
2019-03-31T17:00:19.715Z,26.58
2019-03-31T17:03:24.407Z,27.79
2019-03-31T17:06:29.138Z,27.26
2019-03-31T17:09:33.570Z,25.96
2019-03-31T17:12:38.017Z,26.24
2019-03-31T17:15:42.711Z,27.17
2019-03-31T17:18:47.153Z,28.27
2019-03-31T17:21:51.598Z,30.15
2019-03-31T17:24:56.291Z,31.12
2019-03-31T17:28:01.024Z,32.64
2019-03-31T17:31:05.543Z,32.65
2019-03-31T17:34:10.282Z,32.33
2019-03-31T17:37:15.009Z,33.39
2019-03-31T17:40:19.462Z,32.43
2019-03-31T17:43:23.952Z,31.63
2019-03-31T17:46:28.690Z,32.70
2019-03-31T17:49:33.136Z,32.38
2019-03-31T17:52:37.577Z,33.54
2019-03-31T17:55:42.022Z,33.45
2019-03-31T17:58:46.455Z,33.90
2019-03-31T18:01:51.214Z,34.81
2019-03-31T18:04:55.651Z,35.56
2019-03-31T18:08:00.096Z,35.79
2019-03-31T18:11:04.544Z,36.33
2019-03-31T18:14:08.973Z,36.64
2019-03-31T18:17:13.410Z,36.81
2019-03-31T18:20:18.164Z,37.38
2019-03-31T18:23:22.611Z,37.86
2019-03-31T18:26:27.322Z,37.83
2019-03-31T18:29:31.758Z,38.79
2019-03-31T18:32:36.579Z,38.30
2019-03-31T18:35:41.030Z,38.96
2019-03-31T18:38:45.465Z,39.73
2019-03-31T18:41:49.928Z,39.26
2019-03-31T18:44:54.366Z,39.44
2019-03-31T18:48:01.087Z,40.42
2019-03-31T18:51:04.983Z,39.74
2019-03-31T18:54:13.797Z,40.54
2019-03-31T18:57:22.840Z,40.13
2019-03-31T19:00:37.805Z,40.68
2019-03-31T19:03:52.751Z,40.40
2019-03-31T19:07:08.611Z,40.15
2019-03-31T19:10:30.813Z,39.75
2019-03-31T19:13:54.804Z,39.92
2019-03-31T19:16:50.854Z,40.68
2019-03-31T19:19:57.282Z,38.56
2019-03-31T19:23:01.499Z,39.42
2019-03-31T19:26:07.647Z,39.01
2019-03-31T19:29:16.973Z,38.60
2019-03-31T19:32:24.341Z,39.58
2019-03-31T19:35:33.233Z,39.15
2019-03-31T19:38:47.231Z,40.45
2019-03-31T19:42:11.168Z,41.50
2019-03-31T19:45:26.142Z,40.09
2019-03-31T19:48:34.743Z,41.07
2019-03-31T19:51:50.219Z,41.87
2019-03-31T19:54:57.071Z,41.01
2019-03-31T19:58:07.372Z,42.15
2019-03-31T20:01:22.174Z,42.15
2019-03-31T20:04:40.468Z,43.30
2019-03-31T20:07:47.191Z,41.60
2019-03-31T20:10:59.411Z,42.79
2019-03-31T20:14:23.944Z,42.65
2019-03-31T20:17:33.008Z,43.27
2019-03-31T20:20:51.117Z,44.20
2019-03-31T20:23:57.205Z,44.29
2019-03-31T20:27:08.864Z,44.59
2019-03-31T20:30:20.814Z,45.27
2019-03-31T20:33:26.907Z,44.70
2019-03-31T20:36:36.199Z,44.09
2019-03-31T20:39:56.576Z,46.07
2019-03-31T20:42:58.907Z,46.29
2019-03-31T20:46:04.515Z,46.62
2019-03-31T20:49:09.116Z,47.42
2019-03-31T20:52:13.558Z,47.75
2019-03-31T20:55:18.295Z,48.48
2019-03-31T20:58:22.743Z,48.84
2019-03-31T21:01:27.452Z,49.06
2019-03-31T21:04:32.187Z,48.96
2019-03-31T21:07:36.627Z,49.08
2019-03-31T21:10:41.081Z,49.33
2019-03-31T21:13:45.865Z,49.64
2019-03-31T21:16:50.302Z,49.93
2019-03-31T21:19:54.759Z,50.39
2019-03-31T21:22:59.208Z,50.55
2019-03-31T21:26:04.022Z,51.16
2019-03-31T21:29:08.467Z,51.55
2019-03-31T21:32:12.929Z,51.54
2019-03-31T21:35:17.644Z,51.01
2019-03-31T21:38:22.111Z,50.93
2019-03-31T21:41:26.550Z,51.63
2019-03-31T21:44:31.001Z,51.83
2019-03-31T21:47:35.433Z,52.02
2019-03-31T21:50:39.879Z,52.35
2019-03-31T21:53:44.331Z,52.20
2019-03-31T21:56:48.769Z,52.71
2019-03-31T21:59:53.547Z,53.10
2019-03-31T22:02:58.274Z,52.88
2019-03-31T22:06:03.010Z,53.66
2019-03-31T22:09:09.638Z,54.04
2019-03-31T22:12:14.078Z,54.16
2019-03-31T22:15:18.834Z,54.01
2019-03-31T22:18:23.557Z,53.65
2019-03-31T22:21:28.001Z,53.71
2019-03-31T22:24:32.450Z,53.27
2019-03-31T22:27:36.891Z,53.00
2019-03-31T22:30:41.340Z,53.24
2019-03-31T22:33:46.095Z,53.42
2019-03-31T22:36:50.825Z,53.49
2019-03-31T22:39:55.555Z,53.49
2019-03-31T22:43:00.002Z,54.06
2019-03-31T22:46:04.441Z,53.70
2019-03-31T22:49:09.138Z,54.10
2019-03-31T22:52:13.592Z,54.47
2019-03-31T22:55:18.036Z,54.55
2019-03-31T22:58:23.743Z,54.63
2019-03-31T23:01:28.199Z,54.75
2019-03-31T23:04:32.991Z,54.78
2019-03-31T23:07:37.432Z,55.08
2019-03-31T23:10:41.878Z,55.43
2019-03-31T23:13:46.568Z,55.88
2019-03-31T23:16:51.033Z,56.24
2019-03-31T23:19:55.724Z,56.30
2019-03-31T23:23:00.461Z,56.34
2019-03-31T23:26:05.188Z,56.47
2019-03-31T23:29:09.632Z,55.88
2019-03-31T23:32:14.086Z,55.80
2019-03-31T23:35:18.536Z,55.94
2019-03-31T23:38:22.974Z,55.97
2019-03-31T23:41:27.430Z,56.85
2019-03-31T23:44:31.886Z,56.73
2019-03-31T23:47:36.341Z,56.48
2019-03-31T23:50:41.120Z,56.43
2019-03-31T23:53:45.533Z,56.23
2019-03-31T23:56:49.989Z,55.75
2019-03-31T23:59:54.432Z,55.40
